Terminal Aerodrome Forecast
Issued by NWS

Home | Current Version | Previous Version | Graphics & Text | Print | Product List | Glossary On
Versions: 1 2 3 4 5 6 7 8 9 10 11 12 13 14 15 16
000
FTUS42 KMHX 131100
TAFOAJ
TAF
KOAJ 131120Z 1312/1412 17004KT P6SM SKC
     FM131500 18012G20KT P6SM SCT060
     FM140100 18005KT P6SM FEW020
      AMD LTD TO CLD VIS AND WIND=

USA.gov is the U.S. government's official web portal to all federal, state and local government web resources and services.